Washington, District of Columbia
Traffic Map
Current Weather Conditions
Washington, District of Columbia
Broken Clouds
Broken Clouds
78°
Feels Like: 80°
Wind Chill: 78° Ceiling: 25000
Heat Index: 80° Visibility: 10mi
Dew Point: 67° Wind: 3mph
Humidity: 68% Direction: 110° (ESE)
Pressure: 29.91in Gusts: 0mph
Raw Report DataKDCA 291652Z 11003KT 10SM R01/3000VP6000FT SCT040 BKN250 26/19 A2991 RMK AO2 SLP129 T02560194
Traffic Incident Summary
Active as of:
Severity:
Category:
InformationThere was an issue retrieving the traffic information for this location. Please try a different location or try again shortly.
Advertisements
Track Severe Weather on mobile